Time;durP1;ratioP1;P1;durP2;ratioP2;P2;SDS_P1;SDS_P2;PMS_P1;PMS_P2;Temp;Humidity;BMP_temperature;BMP_pressure;BME280_temperature;BME280_humidity;BME280_pressure;Samples;Min_cycle;Max_cycle;Signal;HPM_P1;HPM_P2
2023/04/19 00:01:23;;;;;;;14.43;11.90;;;;;;;7.32;87.01;98064.50;6231673;28;20264;-88
2023/04/19 00:04:26;;;;;;;15.00;11.73;;;;;;;5.81;86.68;97836.38;6227006;28;20358;-88
2023/04/19 00:07:28;;;;;;;14.97;12.10;;;;;;;5.62;87.44;97812.44;6227176;28;20239;-89
2023/04/19 00:10:31;;;;;;;15.17;12.33;;;;;;;6.18;87.65;97916.88;6247704;28;20323;-88
2023/04/19 00:13:33;;;;;;;14.80;12.63;;;;;;;7.14;88.00;98065.22;6234052;28;20603;-89
2023/04/19 00:16:36;;;;;;;19.10;14.33;;;;;;;7.34;87.78;98054.53;6233813;28;20315;-89
2023/04/19 00:19:38;;;;;;;19.50;13.77;;;;;;;5.94;87.16;97817.88;6230560;28;20236;-88
2023/04/19 00:22:40;;;;;;;17.17;13.90;;;;;;;6.72;86.67;97924.41;6222043;28;20244;-88
2023/04/19 00:25:45;;;;;;;18.53;13.50;;;;;;;5.79;86.69;97794.28;6247627;28;20230;-88
2023/04/19 00:28:47;;;;;;;17.97;13.57;;;;;;;5.09;86.74;97684.94;6234809;28;20243;-88
2023/04/19 00:31:49;;;;;;;21.47;14.77;;;;;;;7.40;87.08;98029.00;6234578;28;20240;-88
2023/04/19 00:34:51;;;;;;;16.93;13.83;;;;;;;7.36;86.82;98020.66;6248700;28;20227;-88
2023/04/19 00:37:55;;;;;;;16.67;13.27;;;;;;;7.40;86.72;98037.78;6221983;28;20258;-87
2023/04/19 00:40:58;;;;;;;16.43;13.00;;;;;;;6.64;86.03;97910.59;6241734;28;20409;-88
2023/04/19 00:44:00;;;;;;;15.90;13.30;;;;;;;7.43;85.96;98016.13;6250023;28;20321;-88
2023/04/19 00:47:03;;;;;;;16.83;13.43;;;;;;;5.69;85.04;97710.16;6225867;28;20236;-88
2023/04/19 00:50:06;;;;;;;19.87;14.43;;;;;;;6.77;85.50;97905.25;6226659;28;20234;-88
2023/04/19 00:53:09;;;;;;;15.33;12.63;;;;;;;7.48;85.09;97997.75;6225647;28;20241;-88
2023/04/19 00:56:12;;;;;;;18.13;13.50;;;;;;;7.24;86.20;97998.50;6249609;28;20241;-88
2023/04/19 00:59:15;;;;;;;17.87;13.83;;;;;;;6.22;86.78;97854.59;6241607;28;20227;-88
2023/04/19 01:02:17;;;;;;;21.03;16.13;;;;;;;6.42;86.59;97863.25;6235057;28;20227;-88
2023/04/19 01:05:19;;;;;;;17.63;14.30;;;;;;;6.21;87.04;97850.34;6250480;28;20230;-88
2023/04/19 01:08:22;;;;;;;20.97;16.37;;;;;;;5.37;87.50;97727.75;6233370;28;20379;-88
2023/04/19 01:11:28;;;;;;;21.20;16.27;;;;;;;6.78;86.74;97924.59;6230167;28;20337;-88
2023/04/19 01:14:30;;;;;;;20.50;16.33;;;;;;;6.32;86.84;97877.97;6254347;28;20249;-88
2023/04/19 01:17:33;;;;;;;25.13;17.43;;;;;;;5.64;86.89;97743.53;6234159;28;20246;-88
2023/04/19 01:20:35;;;;;;;19.17;15.10;;;;;;;7.17;87.00;97989.78;6227765;28;20234;-88
2023/04/19 01:23:38;;;;;;;20.57;16.73;;;;;;;5.62;86.31;97711.22;6237162;28;20239;-88
2023/04/19 01:26:40;;;;;;;22.53;16.63;;;;;;;7.55;85.49;97983.66;6243157;28;20230;-88
2023/04/19 01:29:43;;;;;;;25.53;19.13;;;;;;;7.44;85.45;97969.25;6255819;28;20242;-88
2023/04/19 01:32:45;;;;;;;22.37;16.60;;;;;;;6.38;84.75;97781.88;6230545;28;20266;-88
2023/04/19 01:35:48;;;;;;;21.60;17.17;;;;;;;7.72;84.42;97966.97;6238526;28;20233;-88
2023/04/19 01:38:51;;;;;;;18.57;15.57;;;;;;;7.33;83.94;97923.03;6249867;28;20246;-88
2023/04/19 01:41:53;;;;;;;20.90;17.10;;;;;;;7.60;84.54;97959.97;6248964;28;20243;-88
2023/04/19 01:44:55;;;;;;;21.60;17.17;;;;;;;5.69;83.99;97683.72;6273663;28;20580;-87
2023/04/19 01:47:58;;;;;;;21.27;16.00;;;;;;;5.90;84.31;97727.53;6275666;28;20237;-88
2023/04/19 01:51:00;;;;;;;21.93;16.03;;;;;;;5.26;84.61;97629.84;6274601;28;20338;-88
2023/04/19 01:54:03;;;;;;;23.40;18.30;;;;;;;6.07;85.47;97785.28;6258711;28;20215;-90
2023/04/19 01:57:05;;;;;;;22.17;17.87;;;;;;;5.52;84.63;97661.47;6237932;28;20214;-88
2023/04/19 02:00:08;;;;;;;26.03;19.20;;;;;;;6.62;85.35;97843.81;6222921;28;20258;-88
2023/04/19 02:03:16;;;;;;;22.30;17.57;;;;;;;6.94;84.52;97863.97;6240087;28;20226;-88
2023/04/19 02:06:18;;;;;;;24.53;19.07;;;;;;;5.66;84.53;97673.59;6235355;28;20217;-88
2023/04/19 02:09:23;;;;;;;25.53;18.87;;;;;;;7.40;85.25;97963.56;6222191;28;20234;-88
2023/04/19 02:12:30;;;;;;;22.73;18.13;;;;;;;5.23;84.77;97609.16;6223236;28;20281;-88
2023/04/19 02:15:32;;;;;;;29.47;20.20;;;;;;;6.66;85.13;97848.50;6248532;28;20253;-88
2023/04/19 02:18:40;;;;;;;24.17;19.40;;;;;;;5.49;84.87;97661.06;6236465;28;20235;-87
2023/04/19 02:21:42;;;;;;;23.73;18.20;;;;;;;6.89;83.99;97865.66;6229987;28;20600;-89
2023/04/19 02:24:50;;;;;;;25.27;19.53;;;;;;;7.26;83.89;97910.88;6251254;28;20243;-88
2023/04/19 02:27:52;;;;;;;24.57;19.00;;;;;;;6.93;83.48;97838.53;6242636;28;20388;-89
2023/04/19 02:30:55;;;;;;;24.23;18.83;;;;;;;6.23;83.95;97718.66;6255780;28;20251;-89
2023/04/19 02:33:57;;;;;;;22.27;18.27;;;;;;;7.04;84.41;97870.66;6232144;28;20509;-88
2023/04/19 02:37:01;;;;;;;23.93;19.10;;;;;;;7.54;84.64;97932.47;6249501;28;20251;-88
2023/04/19 02:40:04;;;;;;;24.97;19.43;;;;;;;6.04;83.50;97678.09;6243317;28;20246;-89
2023/04/19 02:43:06;;;;;;;21.63;18.10;;;;;;;6.83;83.82;97805.59;6230987;28;20234;-89
2023/04/19 02:46:09;;;;;;;26.80;19.47;;;;;;;7.48;84.48;97914.75;6238852;28;20687;-89
2023/04/19 02:49:11;;;;;;;24.07;19.93;;;;;;;6.28;84.82;97753.22;6258158;28;20266;-88
2023/04/19 02:52:14;;;;;;;24.47;19.27;;;;;;;6.68;84.12;97790.84;6233439;28;20255;-88
2023/04/19 02:55:16;;;;;;;25.30;19.80;;;;;;;7.21;82.03;97798.38;6246891;28;20234;-89
2023/04/19 02:58:20;;;;;;;25.40;20.23;;;;;;;7.09;83.46;97808.03;6254540;28;20236;-88
2023/04/19 03:01:34;;;;;;;27.30;19.63;;;;;;;5.73;83.88;97628.63;6231861;28;20245;-88
2023/04/19 03:04:39;;;;;;;26.00;20.07;;;;;;;6.94;83.10;97770.47;6236205;28;20237;-88
2023/04/19 03:07:41;;;;;;;25.53;19.60;;;;;;;6.67;82.13;97732.81;6251860;28;20798;-87
2023/04/19 03:10:45;;;;;;;25.77;19.23;;;;;;;7.06;82.41;97799.75;6234227;28;20238;-88
2023/04/19 03:13:47;;;;;;;25.87;20.40;;;;;;;6.68;83.33;97745.84;6248122;28;20344;-89
2023/04/19 03:16:50;;;;;;;24.60;19.23;;;;;;;7.01;82.43;97786.34;6261747;28;20230;-88
2023/04/19 03:19:52;;;;;;;26.57;19.60;;;;;;;8.00;82.92;97918.00;6256882;28;20238;-88
2023/04/19 03:22:55;;;;;;;23.77;19.47;;;;;;;7.96;83.11;97917.59;6243476;28;20297;-88
2023/04/19 03:25:57;;;;;;;24.07;19.63;;;;;;;7.84;84.03;97903.44;6218374;28;20258;-89
2023/04/19 03:29:13;;;;;;;28.73;21.27;;;;;;;6.61;84.38;97738.97;6222772;28;20232;-89
2023/04/19 03:32:35;;;;;;;23.90;19.83;;;;;;;7.89;82.95;97916.88;6233390;28;20293;-88
2023/04/19 03:35:37;;;;;;;25.03;19.57;;;;;;;7.85;83.65;97913.03;6231636;28;20248;-88
2023/04/19 03:38:44;;;;;;;27.77;20.37;;;;;;;7.27;83.91;97831.16;6253781;28;20249;-88
2023/04/19 03:41:51;;;;;;;26.20;20.90;;;;;;;5.78;82.71;97561.91;6250851;28;20243;-89
2023/04/19 03:44:58;;;;;;;24.20;19.67;;;;;;;6.85;82.56;97724.94;6243707;28;20241;-88
2023/04/19 03:48:02;;;;;;;24.70;18.93;;;;;;;6.84;83.66;97763.00;6227077;28;20457;-89
2023/04/19 03:51:05;;;;;;;24.30;19.97;;;;;;;5.28;84.20;97498.41;6224765;28;20215;-87
2023/04/19 03:54:07;;;;;;;24.63;18.97;;;;;;;7.11;83.67;97800.72;6242997;28;20226;-87
2023/04/19 03:57:12;;;;;;;23.37;18.90;;;;;;;7.46;84.16;97859.31;6235533;28;20219;-89
2023/04/19 04:00:15;;;;;;;27.40;20.40;;;;;;;6.36;83.01;97663.03;6237087;28;20314;-88
2023/04/19 04:03:23;;;;;;;29.03;20.87;;;;;;;6.69;83.39;97728.09;6236027;28;20519;-88
2023/04/19 04:06:26;;;;;;;26.63;19.97;;;;;;;6.70;83.99;97701.44;6239760;28;20743;-88
2023/04/19 04:09:29;;;;;;;27.20;21.27;;;;;;;6.28;83.99;97649.25;6230720;28;20234;-88
2023/04/19 04:12:32;;;;;;;30.27;21.80;;;;;;;7.62;82.39;97852.66;6238227;28;20232;-89
2023/04/19 04:15:36;;;;;;;29.40;21.83;;;;;;;6.98;81.76;97708.91;6228271;28;20238;-89
2023/04/19 04:18:39;;;;;;;23.83;19.93;;;;;;;7.36;82.34;97758.28;6246128;28;20223;-88
2023/04/19 04:21:44;;;;;;;27.30;21.07;;;;;;;6.96;82.44;97700.41;6243405;28;20246;-88
2023/04/19 04:24:48;;;;;;;27.97;21.40;;;;;;;6.22;83.86;97623.66;6250749;28;20233;-88
2023/04/19 04:28:10;;;;;;;27.97;21.97;;;;;;;7.91;83.77;97867.06;6240707;28;20239;-88
2023/04/19 04:31:16;;;;;;;27.87;22.70;;;;;;;8.00;83.53;97876.34;6233094;28;20223;-88
2023/04/19 04:34:20;;;;;;;27.47;22.03;;;;;;;8.04;83.12;97874.06;6251604;28;20254;-88
2023/04/19 04:37:33;;;;;;;28.33;21.80;;;;;;;7.92;83.96;97866.00;6252362;28;20313;-88
2023/04/19 04:40:35;;;;;;;31.60;21.43;;;;;;;6.07;83.98;97577.19;6244503;28;20289;-88
2023/04/19 04:43:38;;;;;;;28.67;22.20;;;;;;;7.10;85.37;97779.75;6233444;28;20232;-88
2023/04/19 04:46:40;;;;;;;33.33;23.23;;;;;;;7.06;85.29;97755.53;6234728;28;20238;-88
2023/04/19 04:49:45;;;;;;;28.17;23.17;;;;;;;7.31;83.19;97771.38;6250331;28;20235;-88
2023/04/19 04:52:48;;;;;;;26.27;20.83;;;;;;;6.02;83.91;97577.00;6226216;28;20315;-88
2023/04/19 04:55:55;;;;;;;25.63;20.93;;;;;;;6.34;85.03;97635.97;6231172;28;20369;-89
2023/04/19 04:58:58;;;;;;;32.73;22.50;;;;;;;7.08;85.29;97768.53;6253547;28;20230;-88
2023/04/19 05:02:05;;;;;;;27.07;20.67;;;;;;;6.49;84.03;97675.31;6242645;28;20374;-88
2023/04/19 05:05:10;;;;;;;29.47;20.93;;;;;;;7.03;83.15;97726.81;6248600;28;20228;-88
2023/04/19 05:08:12;;;;;;;28.63;21.50;;;;;;;7.28;83.18;97750.63;6266839;28;20271;-89
2023/04/19 05:11:16;;;;;;;29.27;22.07;;;;;;;7.40;82.38;97767.44;6259411;28;20222;-88
2023/04/19 05:14:18;;;;;;;25.13;21.03;;;;;;;7.28;81.88;97744.50;6260710;28;20278;-88
2023/04/19 05:17:21;;;;;;;27.17;21.73;;;;;;;7.35;82.41;97767.28;6257322;28;20733;-87
2023/04/19 05:20:24;;;;;;;26.13;20.77;;;;;;;6.21;82.24;97585.81;6245459;28;20230;-88
2023/04/19 05:23:36;;;;;;;26.83;21.23;;;;;;;7.65;82.43;97798.38;6251061;28;20236;-88
2023/04/19 05:26:39;;;;;;;26.07;20.77;;;;;;;7.65;82.24;97787.78;6225740;28;20285;-88
2023/04/19 05:29:42;;;;;;;25.97;21.23;;;;;;;7.67;82.89;97828.94;6227297;28;20776;-88
2023/04/19 05:32:45;;;;;;;25.97;20.40;;;;;;;7.84;82.36;97813.28;6221872;28;20236;-88
2023/04/19 05:35:48;;;;;;;24.93;21.17;;;;;;;8.11;82.44;97845.63;6244278;28;20277;-88
2023/04/19 05:38:50;;;;;;;26.20;21.37;;;;;;;6.70;82.30;97645.03;6228956;28;20236;-88
2023/04/19 05:41:53;;;;;;;24.57;21.43;;;;;;;8.24;81.78;97847.31;6245724;28;20247;-88
2023/04/19 05:44:55;;;;;;;27.40;21.60;;;;;;;7.41;82.72;97728.50;6237290;28;20705;-88
2023/04/19 05:47:57;;;;;;;26.70;20.57;;;;;;;7.33;83.05;97752.63;6247285;28;20231;-88
2023/04/19 05:51:27;;;;;;;27.50;21.40;;;;;;;7.35;83.46;97738.13;6248644;28;20314;-89
2023/04/19 05:54:34;;;;;;;30.93;22.60;;;;;;;7.82;82.59;97796.75;6236020;28;20218;-89
2023/04/19 05:57:38;;;;;;;28.67;22.37;;;;;;;7.22;81.84;97704.63;6247492;28;20692;-88
2023/04/19 06:00:41;;;;;;;29.53;23.63;;;;;;;7.78;82.78;97790.28;6247414;28;20317;-88
2023/04/19 06:03:51;;;;;;;27.30;21.97;;;;;;;6.16;82.78;97546.00;6238149;28;20241;-89
2023/04/19 06:06:55;;;;;;;28.13;21.70;;;;;;;6.47;83.24;97592.72;6239504;28;20233;-88
2023/04/19 06:09:57;;;;;;;27.37;22.93;;;;;;;7.61;82.09;97717.66;6240101;28;20236;-88
2023/04/19 06:13:00;;;;;;;27.43;21.57;;;;;;;7.88;82.43;97773.84;6230371;28;20226;-88
2023/04/19 06:16:03;;;;;;;25.27;20.90;;;;;;;6.35;81.70;97510.56;6260909;28;20237;-88
2023/04/19 06:19:07;;;;;;;26.63;22.13;;;;;;;7.45;82.77;97697.88;6247005;28;20234;-88
2023/04/19 06:22:09;;;;;;;28.33;21.37;;;;;;;6.68;83.20;97594.13;6256412;28;20246;-88
2023/04/19 06:25:11;;;;;;;23.10;20.57;;;;;;;7.45;82.90;97709.28;6224134;28;20235;-88
2023/04/19 06:28:14;;;;;;;26.60;20.33;;;;;;;8.20;82.41;97796.53;6247297;28;20233;-88
2023/04/19 06:31:16;;;;;;;24.40;20.33;;;;;;;7.63;83.10;97721.69;6227491;28;20283;-89
2023/04/19 06:34:19;;;;;;;24.93;20.37;;;;;;;6.86;83.26;97623.28;6223574;28;20234;-88
2023/04/19 06:37:21;;;;;;;23.33;20.07;;;;;;;7.06;83.96;97636.31;6245332;28;20713;-88
2023/04/19 06:40:27;;;;;;;25.93;19.97;;;;;;;7.94;83.27;97768.47;6228251;28;20231;-88
2023/04/19 06:43:29;;;;;;;23.07;19.63;;;;;;;7.81;82.56;97755.38;6271955;28;20261;-88
2023/04/19 06:46:32;;;;;;;21.70;19.20;;;;;;;7.88;83.39;97777.31;6253583;28;20239;-89
2023/04/19 06:49:34;;;;;;;23.70;20.43;;;;;;;7.60;83.26;97746.03;6252600;28;20225;-88
2023/04/19 06:52:36;;;;;;;25.13;18.57;;;;;;;8.22;83.66;97852.81;6256178;28;20374;-88
2023/04/19 06:55:39;;;;;;;24.57;20.07;;;;;;;7.34;83.82;97709.19;6252157;28;20226;-88
2023/04/19 06:59:05;;;;;;;22.80;18.20;;;;;;;8.26;83.21;97821.34;6252428;28;20329;-88
2023/04/19 07:02:08;;;;;;;25.17;18.20;;;;;;;7.14;83.08;97635.22;6247658;28;20246;-89
2023/04/19 07:05:12;;;;;;;22.67;18.23;;;;;;;7.21;82.65;97639.41;6235941;28;20226;-88
2023/04/19 07:08:15;;;;;;;21.67;18.03;;;;;;;8.24;83.42;97818.13;6234196;28;20237;-88
2023/04/19 07:11:17;;;;;;;30.80;18.80;;;;;;;7.37;83.90;97714.06;6248063;28;20223;-88
2023/04/19 07:14:22;;;;;;;20.87;17.47;;;;;;;7.82;82.95;97772.09;6238523;28;20234;-89
2023/04/19 07:17:25;;;;;;;22.90;17.83;;;;;;;7.50;84.16;97725.31;6260200;28;20226;-89
2023/04/19 07:20:28;;;;;;;22.93;17.93;;;;;;;6.72;83.62;97622.59;6243723;28;20240;-89
2023/04/19 07:23:30;;;;;;;22.13;18.20;;;;;;;8.11;84.30;97823.56;6259927;28;20281;-88
2023/04/19 07:26:33;;;;;;;22.20;17.80;;;;;;;6.31;83.92;97567.63;6234975;28;20249;-89
2023/04/19 07:29:36;;;;;;;21.07;17.43;;;;;;;7.10;84.55;97674.59;6240972;28;20236;-88
2023/04/19 07:32:38;;;;;;;22.07;18.03;;;;;;;6.06;85.08;97505.97;6258724;28;20270;-88
2023/04/19 07:35:41;;;;;;;22.97;17.87;;;;;;;7.56;85.31;97759.94;6235328;28;20308;-89
2023/04/19 07:38:43;;;;;;;22.10;17.33;;;;;;;6.25;85.85;97542.00;6259796;28;20231;-89
2023/04/19 07:41:46;;;;;;;19.20;14.83;;;;;;;6.85;86.15;97640.22;6251141;28;20246;-88
2023/04/19 07:44:48;;;;;;;19.87;14.97;;;;;;;6.33;85.96;97536.47;6270025;28;20312;-89
2023/04/19 07:47:50;;;;;;;16.30;13.83;;;;;;;6.61;85.79;97572.22;6239604;28;20641;-89
2023/04/19 07:50:53;;;;;;;15.80;12.47;;;;;;;7.66;85.22;97747.78;6243086;28;20318;-89
2023/04/19 07:53:55;;;;;;;14.20;11.97;;;;;;;7.56;84.72;97701.63;6221678;28;20274;-88
2023/04/19 07:56:57;;;;;;;14.13;12.37;;;;;;;7.60;84.50;97705.44;6239053;28;20379;-89
2023/04/19 08:00:01;;;;;;;11.90;9.83;;;;;;;8.08;83.44;97739.09;6232971;28;20238;-88
2023/04/19 08:03:15;;;;;;;10.73;9.03;;;;;;;7.18;83.64;97596.66;6252476;28;20726;-89
2023/04/19 08:06:17;;;;;;;12.90;9.57;;;;;;;7.04;84.17;97605.78;6238360;28;20689;-89
2023/04/19 08:09:20;;;;;;;11.83;10.30;;;;;;;7.59;84.88;97680.78;6258945;28;20266;-89
2023/04/19 08:12:22;;;;;;;10.77;8.80;;;;;;;7.79;83.77;97704.41;6246775;28;20242;-89
2023/04/19 08:15:39;;;;;;;11.07;9.20;;;;;;;6.58;84.66;97506.50;6247907;28;20231;-88
2023/04/19 08:18:45;;;;;;;11.33;8.47;;;;;;;7.61;83.69;97654.84;6258925;28;20280;-89
2023/04/19 08:21:47;;;;;;;10.63;8.67;;;;;;;7.57;83.63;97658.16;6250938;28;20308;-89
2023/04/19 08:24:52;;;;;;;9.23;7.93;;;;;;;8.29;83.78;97765.19;6251324;28;20233;-89
2023/04/19 08:27:56;;;;;;;10.93;9.30;;;;;;;7.98;85.24;97735.16;6251670;28;20801;-88
2023/04/19 08:30:58;;;;;;;11.63;8.90;;;;;;;8.49;84.47;97805.56;6247080;28;20233;-89
2023/04/19 08:34:01;;;;;;;11.37;8.83;;;;;;;6.69;84.19;97519.78;6225021;28;20706;-89
2023/04/19 08:37:04;;;;;;;11.07;9.03;;;;;;;6.81;85.46;97554.31;6263067;28;20725;-89
2023/04/19 08:40:07;;;;;;;10.40;8.70;;;;;;;8.18;85.09;97758.78;6243872;28;20711;-89
2023/04/19 08:43:09;;;;;;;13.20;9.53;;;;;;;7.69;85.52;97694.31;6264893;28;20754;-88
2023/04/19 08:46:12;;;;;;;11.57;9.13;;;;;;;8.14;85.54;97754.97;6229055;28;20231;-88
2023/04/19 08:49:15;;;;;;;10.57;8.57;;;;;;;8.04;83.27;97714.09;6251637;28;20239;-89
2023/04/19 08:52:18;;;;;;;11.57;8.50;;;;;;;7.10;83.90;97551.94;6251472;28;20323;-88
2023/04/19 08:55:20;;;;;;;10.00;8.47;;;;;;;8.69;84.16;97815.09;6231410;28;22032;-88
2023/04/19 08:58:22;;;;;;;11.00;9.13;;;;;;;7.62;84.96;97637.91;6234684;28;20238;-88
2023/04/19 09:01:42;;;;;;;9.20;7.57;;;;;;;8.77;83.46;97804.16;6247891;28;20706;-88
2023/04/19 09:04:45;;;;;;;10.00;8.63;;;;;;;7.17;83.84;97550.81;6270575;28;20596;-88
2023/04/19 09:07:48;;;;;;;9.63;8.63;;;;;;;7.84;82.87;97656.81;6257295;28;20893;-89
2023/04/19 09:10:55;;;;;;;10.00;7.90;;;;;;;6.84;84.11;97530.00;6241290;28;20222;-89
2023/04/19 09:14:10;;;;;;;10.23;8.50;;;;;;;7.18;85.40;97551.63;6265043;28;20230;-89
2023/04/19 09:17:15;;;;;;;10.67;8.60;;;;;;;7.47;83.60;97587.13;6236398;28;20322;-89
2023/04/19 09:20:35;;;;;;;10.27;8.73;;;;;;;8.41;84.61;97744.81;6235846;28;20622;-90
2023/04/19 09:23:46;;;;;;;7.90;7.10;;;;;;;6.61;83.24;97466.38;6248305;28;20633;-89
2023/04/19 09:26:56;;;;;;;9.27;7.97;;;;;;;8.26;84.79;97729.25;6232197;28;20231;-89
2023/04/19 09:30:00;;;;;;;8.70;7.80;;;;;;;7.10;84.66;97530.75;6238903;28;20314;-89
2023/04/19 09:33:02;;;;;;;10.27;7.63;;;;;;;7.22;84.18;97532.41;6249444;28;20242;-89
2023/04/19 09:36:06;;;;;;;6.90;5.70;;;;;;;8.47;82.56;97735.97;6243816;28;20217;-88
2023/04/19 09:39:10;;;;;;;7.07;6.23;;;;;;;7.38;84.08;97581.31;6223306;28;20587;-88
2023/04/19 09:42:12;;;;;;;8.97;7.47;;;;;;;7.90;84.17;97679.75;6240278;28;20238;-89
2023/04/19 09:45:16;;;;;;;7.90;7.10;;;;;;;7.50;84.78;97615.84;6257937;28;20214;-89
2023/04/19 09:48:22;;;;;;;7.93;6.47;;;;;;;7.34;83.72;97609.31;6240104;28;20594;-89
2023/04/19 09:51:39;;;;;;;10.57;7.27;;;;;;;8.65;85.06;97793.50;6240016;28;20724;-89
2023/04/19 09:54:43;;;;;;;8.00;7.20;;;;;;;8.15;84.01;97698.19;6240987;28;20237;-89
2023/04/19 09:57:45;;;;;;;6.93;5.80;;;;;;;8.71;83.94;97779.31;6251385;28;20231;-89
2023/04/19 10:00:50;;;;;;;6.57;5.90;;;;;;;8.82;82.78;97798.97;6250467;28;20233;-89
2023/04/19 10:04:05;;;;;;;7.00;5.83;;;;;;;8.11;82.23;97669.69;6250158;28;20627;-88
2023/04/19 10:07:27;;;;;;;7.50;6.17;;;;;;;8.76;82.44;97790.03;6232918;28;20243;-89
2023/04/19 10:10:32;;;;;;;7.50;6.07;;;;;;;7.31;81.36;97590.41;6239724;28;20235;-89
2023/04/19 10:13:46;;;;;;;7.63;6.10;;;;;;;7.95;82.12;97660.53;6239889;28;20739;-89
2023/04/19 10:16:49;;;;;;;5.80;5.27;;;;;;;6.81;81.94;97482.81;6259463;28;20631;-89
2023/04/19 10:20:05;;;;;;;6.27;5.67;;;;;;;7.18;82.23;97576.25;6258981;28;20218;-89
2023/04/19 10:23:08;;;;;;;7.00;5.93;;;;;;;7.85;82.44;97660.25;6234864;28;20238;-89
2023/04/19 10:26:10;;;;;;;7.37;6.40;;;;;;;7.18;83.13;97560.38;6240001;28;20227;-89
2023/04/19 10:29:12;;;;;;;8.50;6.53;;;;;;;6.88;83.68;97544.44;6227801;28;21038;-89
2023/04/19 10:32:15;;;;;;;9.70;6.33;;;;;;;7.80;83.48;97676.03;6231705;28;20226;-89
2023/04/19 10:35:23;;;;;;;7.90;5.93;;;;;;;8.36;81.90;97778.34;6219570;28;20229;-89
2023/04/19 10:38:55;;;;;;;7.53;5.83;;;;;;;8.30;82.92;97790.69;6226757;28;20307;-88
2023/04/19 10:41:58;;;;;;;8.23;7.17;;;;;;;6.49;83.18;97492.75;6221265;28;20241;-89
2023/04/19 10:45:33;;;;;;;8.20;6.73;;;;;;;8.23;82.97;97776.69;6250449;28;20249;-89
2023/04/19 10:48:37;;;;;;;7.07;5.80;;;;;;;6.59;82.96;97522.16;6229462;28;20310;-88
2023/04/19 10:51:49;;;;;;;6.63;5.87;;;;;;;8.15;84.26;97772.50;6246746;28;20238;-90
2023/04/19 10:54:55;;;;;;;8.37;6.77;;;;;;;7.18;82.64;97637.19;6252078;28;20294;-89
2023/04/19 10:58:05;;;;;;;6.47;5.77;;;;;;;6.80;83.62;97575.69;6250035;28;20234;-88
2023/04/19 11:01:38;;;;;;;7.67;5.60;;;;;;;8.14;83.98;97762.13;6216060;28;20235;-88
2023/04/19 11:04:50;;;;;;;8.00;6.80;;;;;;;8.18;83.28;97761.44;6244528;28;20706;-88
2023/04/19 11:07:52;;;;;;;9.60;7.03;;;;;;;7.09;82.73;97595.31;6231360;28;20223;-87
2023/04/19 11:10:56;;;;;;;9.67;6.93;;;;;;;7.91;83.04;97723.81;6254889;28;20238;-88
2023/04/19 11:14:01;;;;;;;9.03;7.40;;;;;;;7.01;83.19;97575.25;6255343;28;20260;-87
2023/04/19 11:17:25;;;;;;;8.77;7.60;;;;;;;8.18;83.94;97774.72;6278002;28;20218;-88
2023/04/19 11:20:28;;;;;;;8.50;7.07;;;;;;;7.64;83.96;97669.50;6273654;28;20286;-88
2023/04/19 11:23:30;;;;;;;8.33;7.43;;;;;;;7.91;83.99;97709.75;6284800;28;20226;-88
2023/04/19 11:26:32;;;;;;;9.47;7.23;;;;;;;7.41;83.77;97648.97;6255920;28;20679;-90
2023/04/19 11:29:34;;;;;;;8.97;7.87;;;;;;;7.77;84.71;97730.31;6231570;28;20659;-88
2023/04/19 11:32:37;;;;;;;7.90;6.93;;;;;;;7.10;85.04;97618.16;6242502;28;20219;-88
2023/04/19 11:35:40;;;;;;;8.50;7.50;;;;;;;7.59;84.29;97701.19;6256639;28;20638;-88
2023/04/19 11:38:46;;;;;;;9.73;7.90;;;;;;;6.14;84.89;97466.84;6259908;28;20575;-88
2023/04/19 11:41:50;;;;;;;9.57;7.10;;;;;;;7.60;84.51;97714.22;6239300;28;20238;-89
2023/04/19 11:44:55;;;;;;;9.73;6.73;;;;;;;7.01;85.09;97585.84;6242985;28;20985;-88
2023/04/19 11:47:57;;;;;;;8.27;6.50;;;;;;;6.60;84.19;97501.78;6252462;28;20245;-89
2023/04/19 11:51:00;;;;;;;7.87;6.70;;;;;;;7.37;83.51;97613.34;6260042;28;20321;-89
2023/04/19 11:54:13;;;;;;;7.47;6.20;;;;;;;7.79;83.09;97646.06;6233540;28;20335;-89
2023/04/19 11:57:26;;;;;;;5.53;5.03;;;;;;;8.21;81.50;97712.41;6255569;28;20627;-88
2023/04/19 12:00:29;;;;;;;5.80;4.77;;;;;;;6.60;77.33;97459.44;6252247;28;20226;-89
2023/04/19 12:03:32;;;;;;;5.57;4.80;;;;;;;8.11;79.75;97681.09;6253284;28;20242;-89
2023/04/19 12:06:35;;;;;;;5.57;4.60;;;;;;;6.65;79.13;97478.09;6238260;28;20332;-88
2023/04/19 12:09:38;;;;;;;5.20;4.70;;;;;;;8.61;80.25;97744.53;6258526;28;20232;-88
2023/04/19 12:12:40;;;;;;;4.83;4.17;;;;;;;7.04;80.55;97505.94;6238090;28;20231;-88
2023/04/19 12:15:44;;;;;;;4.90;4.20;;;;;;;8.18;80.54;97667.75;6258954;28;20223;-89
2023/04/19 12:18:49;;;;;;;4.77;4.37;;;;;;;7.26;81.56;97540.72;6241014;28;20594;-89
2023/04/19 12:21:51;;;;;;;5.50;4.90;;;;;;;7.69;81.50;97598.06;6229667;28;20227;-89
2023/04/19 12:24:54;;;;;;;6.77;5.00;;;;;;;7.60;81.27;97581.66;6250342;28;20230;-89
2023/04/19 12:27:57;;;;;;;5.23;4.73;;;;;;;6.97;81.97;97486.69;6240957;28;20714;-89
2023/04/19 12:30:59;;;;;;;5.30;4.80;;;;;;;7.28;82.35;97557.19;6267087;28;20708;-89
2023/04/19 12:34:01;;;;;;;5.07;4.53;;;;;;;7.06;81.66;97518.97;6238211;28;20230;-89
2023/04/19 12:37:03;;;;;;;5.93;5.10;;;;;;;7.73;81.87;97610.66;6266825;28;20240;-90
2023/04/19 12:40:06;;;;;;;6.07;5.37;;;;;;;6.68;82.37;97467.09;6238778;28;20275;-91
2023/04/19 12:43:08;;;;;;;6.27;5.30;;;;;;;6.20;80.37;97426.28;6256531;28;20235;-89
2023/04/19 12:46:10;;;;;;;7.33;5.50;;;;;;;7.22;81.53;97589.88;6266285;28;20233;-90
2023/04/19 12:49:12;;;;;;;7.63;6.03;;;;;;;8.26;81.31;97728.47;6254029;28;20231;-89
2023/04/19 12:52:15;;;;;;;7.03;5.27;;;;;;;7.47;81.82;97627.69;6233376;28;20227;-90
2023/04/19 12:55:17;;;;;;;7.93;5.63;;;;;;;6.19;80.93;97440.53;6265185;28;20314;-89
2023/04/19 12:58:20;;;;;;;8.37;6.33;;;;;;;6.40;80.32;97455.19;6246752;28;20312;-89
2023/04/19 13:01:22;;;;;;;6.60;5.70;;;;;;;6.07;82.21;97429.09;6242743;28;20593;-89
2023/04/19 13:04:24;;;;;;;6.13;5.53;;;;;;;7.82;80.69;97693.31;6255674;28;20238;-91
2023/04/19 13:07:27;;;;;;;7.80;5.33;;;;;;;6.00;79.41;97420.41;6227146;28;20702;-90
2023/04/19 13:10:30;;;;;;;6.10;5.50;;;;;;;7.20;80.83;97605.22;6266338;28;20608;-90
2023/04/19 13:13:33;;;;;;;7.47;6.10;;;;;;;7.07;81.34;97608.00;6253540;28;20223;-89
2023/04/19 13:16:35;;;;;;;6.10;5.50;;;;;;;7.51;79.12;97654.56;6240191;28;20245;-89
2023/04/19 13:19:37;;;;;;;6.90;5.87;;;;;;;6.16;78.60;97459.50;6240718;28;20226;-89
2023/04/19 13:22:40;;;;;;;6.77;5.00;;;;;;;7.02;78.65;97568.13;6254699;28;20257;-90
2023/04/19 13:25:42;;;;;;;5.37;4.87;;;;;;;6.36;78.78;97469.88;6257381;28;20320;-89
2023/04/19 13:28:44;;;;;;;6.00;5.07;;;;;;;6.60;77.50;97494.69;6254959;28;20827;-89
2023/04/19 13:31:48;;;;;;;4.70;4.20;;;;;;;8.11;77.77;97750.09;6256922;28;20808;-89
2023/04/19 13:34:51;;;;;;;5.40;4.67;;;;;;;7.58;78.41;97639.38;6242622;28;20787;-89
2023/04/19 13:37:53;;;;;;;4.73;4.10;;;;;;;8.21;78.00;97717.72;6250111;28;20237;-89
2023/04/19 13:40:56;;;;;;;5.67;4.70;;;;;;;7.07;79.22;97515.28;6259300;28;20262;-89
2023/04/19 13:43:58;;;;;;;4.70;4.20;;;;;;;8.40;74.91;97705.22;6247285;28;20238;-89
2023/04/19 13:47:00;;;;;;;4.80;4.07;;;;;;;7.94;76.20;97643.81;6253612;28;20593;-89
2023/04/19 13:50:02;;;;;;;4.60;3.73;;;;;;;6.73;72.97;97446.03;6240127;28;20230;-89
2023/04/19 13:53:05;;;;;;;4.63;3.93;;;;;;;6.53;76.09;97403.94;6257003;28;20758;-89
2023/04/19 13:56:10;;;;;;;5.50;4.03;;;;;;;8.50;76.21;97713.44;6223869;28;20238;-89
2023/04/19 13:59:14;;;;;;;4.67;3.73;;;;;;;7.84;76.19;97600.31;6254842;28;20697;-89
2023/04/19 14:02:16;;;;;;;4.17;3.77;;;;;;;8.29;77.88;97661.66;6227930;28;20230;-89
2023/04/19 14:05:18;;;;;;;4.60;4.17;;;;;;;7.29;74.15;97518.25;6255774;28;20623;-89
2023/04/19 14:08:20;;;;;;;4.40;4.00;;;;;;;6.57;73.82;97413.06;6280474;28;20215;-89
2023/04/19 14:11:24;;;;;;;4.53;4.13;;;;;;;6.63;74.98;97403.41;6264664;28;20215;-89
2023/04/19 14:14:27;;;;;;;3.77;3.40;;;;;;;8.53;75.05;97718.31;6270450;28;20223;-89
2023/04/19 14:17:34;;;;;;;4.00;3.60;;;;;;;7.38;69.22;97491.22;6265076;28;20249;-89
2023/04/19 14:20:37;;;;;;;5.50;3.63;;;;;;;7.80;69.64;97599.13;6240100;28;20231;-89
2023/04/19 14:23:39;;;;;;;3.60;3.23;;;;;;;8.28;70.95;97638.81;6254423;28;20242;-89
2023/04/19 14:26:41;;;;;;;5.60;4.10;;;;;;;8.18;69.34;97606.72;6249988;28;20757;-88